Time;durP1;ratioP1;P1;durP2;ratioP2;P2;SDS_P1;SDS_P2;PMS_P1;PMS_P2;Temp;Humidity;BMP_temperature;BMP_pressure;BME280_temperature;BME280_humidity;BME280_pressure;Samples;Min_cycle;Max_cycle;Signal;HPM_P1;HPM_P2
2021/03/05 00:27:29;;;;;;;1.40;0.75;;;17.30;36.70;;;;;;4901775;29;20207;-81
2021/03/05 01:10:55;;;;;;;2.05;0.90;;;17.30;36.70;;;;;;4897834;29;20272;-80
2021/03/05 01:30:28;;;;;;;0.85;0.80;;;17.30;36.90;;;;;;4882346;29;20185;-80
2021/03/05 02:05:13;;;;;;;2.55;1.00;;;17.20;37.00;;;;;;4874198;29;20192;-80
2021/03/05 02:11:21;;;;;;;1.73;0.77;;;17.30;37.00;;;;;;4886773;29;20160;-80
2021/03/05 03:19:33;;;;;;;1.20;1.00;;;17.20;37.10;;;;;;4899594;29;20419;-80
2021/03/05 03:30:06;;;;;;;1.10;0.70;;;17.20;37.10;;;;;;4902784;29;20175;-81
2021/03/05 03:36:36;;;;;;;1.83;0.93;;;17.20;37.00;;;;;;4903400;29;20173;-80
2021/03/05 04:45:54;;;;;;;1.27;0.90;;;17.10;37.30;;;;;;4901830;29;20170;-81
2021/03/05 05:15:52;;;;;;;1.42;0.85;;;17.30;36.70;;;;;;4827530;29;20194;-81
2021/03/05 05:22:09;;;;;;;1.08;0.80;;;17.20;36.60;;;;;;4826874;29;20228;-81
2021/03/05 05:28:27;;;;;;;0.80;0.70;;;17.30;36.50;;;;;;4745831;30;20190;-80
2021/03/05 05:31:24;;;;;;;1.08;0.75;;;17.20;36.50;;;;;;4757883;30;20185;-81
2021/03/05 05:34:40;;;;;;;1.25;0.90;;;17.20;36.40;;;;;;4771120;30;20236;-81
2021/03/05 05:47:53;;;;;;;0.88;0.60;;;17.20;36.60;;;;;;4790000;30;20172;-81
2021/03/05 05:57:13;;;;;;;1.05;0.60;;;17.20;36.40;;;;;;4788728;30;20187;-80
2021/03/05 06:00:19;;;;;;;1.80;0.70;;;17.20;36.30;;;;;;4751439;30;20172;-81
2021/03/05 06:16:57;;;;;;;0.98;0.60;;;17.20;36.00;;;;;;4875282;29;20259;-82
2021/03/05 06:19:47;;;;;;;1.80;0.70;;;17.30;35.90;;;;;;4841359;29;20197;-81
2021/03/05 06:26:00;;;;;;;1.30;0.70;;;17.40;35.60;;;;;;4854167;29;20678;-82
2021/03/05 06:32:08;;;;;;;0.70;0.50;;;17.50;35.50;;;;;;4853631;29;20172;-82
2021/03/05 06:35:08;;;;;;;0.82;0.70;;;17.40;35.40;;;;;;4819781;29;20169;-81
2021/03/05 06:38:30;;;;;;;;;;;;;;;;;;;;;
2021/03/05 06:51:16;;;;;;;1.27;0.47;;;17.40;35.50;;;;;;4807240;29;20182;-82
2021/03/05 06:57:42;;;;;;;0.70;0.70;;;17.50;35.20;;;;;;4821816;29;20189;-82
2021/03/05 07:00:29;;;;;;;0.77;0.60;;;17.60;35.00;;;;;;4820579;29;20167;-82
2021/03/05 07:03:21;;;;;;;1.35;0.65;;;17.70;34.80;;;;;;4805804;29;20194;-81
2021/03/05 07:06:41;;;;;;;4.30;0.73;;;17.70;35.00;;;;;;4805751;29;20592;-82
2021/03/05 07:09:47;;;;;;;2.17;0.98;;;17.60;35.10;;;;;;4816612;29;20211;-82
2021/03/05 07:12:28;;;;;;;2.80;0.70;;;17.60;35.00;;;;;;4816321;29;20205;-81
2021/03/05 07:15:10;;;;;;;5.05;0.88;;;17.60;35.00;;;;;;4807124;29;20201;-81
2021/03/05 07:17:37;;;;;;;5.35;0.95;;;17.50;35.10;;;;;;4817892;29;20302;-81
2021/03/05 07:20:16;;;;;;;9.65;1.00;;;17.60;35.10;;;;;;4803512;29;20178;-81
2021/03/05 07:22:49;;;;;;;3.95;0.60;;;17.60;35.10;;;;;;4824470;29;20205;-81
2021/03/05 07:25:39;;;;;;;6.75;1.30;;;17.50;35.00;;;;;;4832985;29;20258;-82
2021/03/05 07:28:08;;;;;;;3.97;0.85;;;17.60;35.00;;;;;;4886711;29;20188;-82
2021/03/05 07:30:34;;;;;;;5.28;1.02;;;17.50;35.00;;;;;;4889241;29;20168;-81
2021/03/05 07:33:59;;;;;;;5.00;0.90;;;17.60;34.90;;;;;;4889639;29;20166;-82
2021/03/05 07:36:32;;;;;;;5.32;0.90;;;17.60;34.90;;;;;;4835306;29;20721;-81
2021/03/05 07:39:03;;;;;;;6.30;1.10;;;17.60;34.90;;;;;;4835345;29;20185;-82
2021/03/05 07:45:28;;;;;;;4.55;1.00;;;17.60;35.50;;;;;;4850719;29;20244;-81
2021/03/05 07:47:55;;;;;;;3.28;0.88;;;17.50;35.50;;;;;;4835668;29;20193;-81
2021/03/05 07:50:23;;;;;;;3.85;0.80;;;17.60;35.50;;;;;;4835986;29;20189;-82
2021/03/05 07:52:51;;;;;;;4.10;0.90;;;17.60;35.10;;;;;;4835020;29;20220;-82
2021/03/05 07:55:38;;;;;;;2.58;0.88;;;17.60;35.20;;;;;;4820675;29;20323;-82
2021/03/05 07:58:05;;;;;;;2.30;0.82;;;17.70;35.00;;;;;;4835134;29;20165;-81
2021/03/05 08:00:53;;;;;;;3.63;0.63;;;17.70;34.90;;;;;;4832632;29;20197;-82
2021/03/05 08:10:41;;;;;;;2.30;0.70;;;17.60;34.80;;;;;;4722988;30;20219;-81
2021/03/05 08:13:46;;;;;;;5.13;0.60;;;17.70;34.70;;;;;;4759339;30;20180;-81
2021/03/05 08:16:32;;;;;;;2.80;0.60;;;17.60;34.70;;;;;;4777582;30;20195;-81
2021/03/05 08:29:46;;;;;;;3.35;0.63;;;17.70;34.40;;;;;;4780075;30;20192;-82
2021/03/05 08:32:46;;;;;;;2.53;0.65;;;17.70;34.40;;;;;;4778559;30;20184;-82
2021/03/05 08:35:32;;;;;;;2.75;0.77;;;17.70;34.40;;;;;;4779806;30;20560;-81
2021/03/05 08:38:05;;;;;;;3.17;0.70;;;17.70;34.40;;;;;;4781250;30;20196;-81
2021/03/05 08:40:38;;;;;;;2.28;0.75;;;17.80;34.30;;;;;;4767829;30;20176;-81
2021/03/05 08:43:24;;;;;;;2.30;0.80;;;17.80;34.30;;;;;;4780474;29;20261;-81
2021/03/05 08:45:52;;;;;;;0.80;0.63;;;17.90;34.00;;;;;;4891562;29;20204;-81
2021/03/05 08:48:48;;;;;;;3.90;0.77;;;17.90;34.00;;;;;;4876825;29;20687;-81
2021/03/05 08:51:24;;;;;;;2.65;1.02;;;17.90;34.00;;;;;;4905911;29;20175;-82
2021/03/05 08:53:56;;;;;;;4.97;0.68;;;17.80;34.00;;;;;;4876875;29;20175;-81
2021/03/05 08:56:25;;;;;;;2.20;0.80;;;17.80;33.90;;;;;;4891864;29;20198;-81
2021/03/05 08:59:03;;;;;;;2.95;0.70;;;17.90;34.00;;;;;;4891899;29;20568;-81
2021/03/05 09:01:36;;;;;;;1.73;0.60;;;17.80;34.00;;;;;;4891592;29;20250;-82
2021/03/05 09:04:13;;;;;;;1.17;0.70;;;17.80;34.00;;;;;;4907167;29;20175;-81
2021/03/05 09:06:58;;;;;;;3.15;0.63;;;17.80;34.00;;;;;;4907614;29;20199;-81
2021/03/05 09:09:28;;;;;;;2.45;0.60;;;17.80;34.00;;;;;;4907663;29;20169;-81
2021/03/05 09:12:13;;;;;;;0.60;0.50;;;17.80;33.90;;;;;;4907495;29;20684;-82
2021/03/05 09:14:46;;;;;;;0.88;0.60;;;17.80;34.00;;;;;;4909771;29;20157;-81
2021/03/05 09:17:12;;;;;;;2.45;0.60;;;17.80;33.90;;;;;;4905535;29;20375;-81
2021/03/05 09:19:47;;;;;;;0.50;0.50;;;17.80;33.80;;;;;;4891328;29;20171;-82
2021/03/05 09:22:18;;;;;;;1.95;0.70;;;17.80;33.90;;;;;;4893463;29;20623;-81
2021/03/05 09:25:05;;;;;;;1.20;0.65;;;17.90;33.70;;;;;;4909884;29;20156;-81
2021/03/05 09:27:38;;;;;;;1.33;0.50;;;17.90;33.80;;;;;;4908957;29;20215;-81
2021/03/05 09:30:16;;;;;;;1.33;0.70;;;17.80;33.80;;;;;;4907980;29;20157;-82
2021/03/05 09:32:53;;;;;;;1.65;0.50;;;17.80;33.80;;;;;;4908102;29;20156;-81
2021/03/05 09:35:23;;;;;;;0.65;0.50;;;17.90;33.70;;;;;;4892400;29;20228;-81
2021/03/05 09:37:54;;;;;;;0.50;0.40;;;17.90;33.70;;;;;;4894413;29;20183;-81
2021/03/05 09:40:22;;;;;;;0.52;0.50;;;17.90;33.50;;;;;;4892267;29;20256;-81
2021/03/05 09:42:50;;;;;;;0.75;0.50;;;18.00;33.50;;;;;;4894016;29;20172;-81
2021/03/05 09:45:55;;;;;;;2.10;0.55;;;17.90;33.60;;;;;;4893349;29;20172;-81
2021/03/05 09:48:53;;;;;;;3.55;0.77;;;17.90;33.50;;;;;;4907542;29;20160;-81
2021/03/05 09:51:20;;;;;;;2.83;0.70;;;17.90;33.60;;;;;;4906522;29;20199;-82
2021/03/05 09:53:54;;;;;;;0.50;0.47;;;17.90;33.70;;;;;;4879241;29;20180;-80
2021/03/05 09:56:44;;;;;;;0.50;0.50;;;17.90;33.70;;;;;;4890670;29;20191;-81
2021/03/05 09:59:10;;;;;;;0.88;0.50;;;17.80;33.70;;;;;;4892380;29;20171;-81
2021/03/05 10:01:50;;;;;;;3.47;0.70;;;17.90;33.50;;;;;;4893517;29;20546;-81
2021/03/05 10:04:16;;;;;;;3.17;0.60;;;17.90;33.70;;;;;;4892851;29;20187;-81
2021/03/05 10:06:41;;;;;;;0.90;0.65;;;17.90;33.70;;;;;;4891745;29;20199;-81
2021/03/05 10:09:08;;;;;;;1.05;0.60;;;17.90;33.50;;;;;;4907785;29;20636;-81
2021/03/05 10:11:47;;;;;;;0.95;0.60;;;17.90;33.50;;;;;;4890502;29;20164;-79
2021/03/05 10:14:29;;;;;;;1.83;0.60;;;17.90;33.50;;;;;;4891922;29;20187;-80
2021/03/05 10:17:18;;;;;;;1.50;0.85;;;17.90;33.70;;;;;;4895674;29;20183;-78
2021/03/05 10:19:47;;;;;;;2.08;0.60;;;17.90;33.60;;;;;;4895835;29;20185;-80
2021/03/05 10:22:23;;;;;;;2.53;0.70;;;17.90;33.60;;;;;;4909148;29;20591;-80
2021/03/05 10:28:40;;;;;;;1.80;0.65;;;17.90;33.50;;;;;;4894497;29;20195;-79
2021/03/05 10:31:41;;;;;;;0.57;0.50;;;18.00;33.20;;;;;;4894836;29;20163;-80
2021/03/05 10:34:58;;;;;;;1.40;0.60;;;18.00;33.10;;;;;;4823072;29;20182;-79
2021/03/05 10:37:43;;;;;;;0.98;0.60;;;18.10;33.10;;;;;;4800600;30;20228;-79
2021/03/05 10:40:44;;;;;;;1.27;0.63;;;18.00;33.20;;;;;;4802427;30;20216;-79
2021/03/05 10:50:56;;;;;;;3.30;0.80;;;17.90;33.50;;;;;;4783217;30;20229;-78
2021/03/05 11:03:41;;;;;;;7.68;0.95;;;18.00;33.40;;;;;;4736357;30;20186;-79
2021/03/05 11:16:30;;;;;;;3.65;0.60;;;18.00;33.30;;;;;;4782835;30;20195;-80
2021/03/05 11:23:02;;;;;;;4.07;0.60;;;18.00;33.40;;;;;;4801522;30;20193;-80
2021/03/05 11:28:49;;;;;;;4.82;1.10;;;18.00;33.30;;;;;;4800251;30;20256;-80
2021/03/05 11:31:22;;;;;;;9.27;0.98;;;18.10;33.30;;;;;;4785833;30;20179;-80
2021/03/05 11:33:48;;;;;;;8.88;1.10;;;18.00;33.30;;;;;;4784584;30;20188;-80
2021/03/05 11:36:17;;;;;;;9.80;0.90;;;18.00;33.20;;;;;;4798417;29;20237;-80
2021/03/05 11:38:44;;;;;;;11.10;1.30;;;18.00;33.30;;;;;;4818959;29;20191;-81
2021/03/05 11:41:17;;;;;;;9.27;1.42;;;18.00;33.20;;;;;;4817652;29;20190;-82
2021/03/05 11:43:43;;;;;;;6.03;1.02;;;18.00;33.40;;;;;;4790359;29;20213;-81
2021/03/05 11:46:10;;;;;;;4.60;0.70;;;18.10;33.20;;;;;;4791550;29;20240;-82
2021/03/05 11:48:35;;;;;;;4.50;0.75;;;18.10;33.10;;;;;;4807188;29;20519;-82
2021/03/05 11:51:01;;;;;;;10.15;0.90;;;18.00;33.10;;;;;;4805262;29;20224;-82
2021/03/05 11:53:27;;;;;;;12.23;0.98;;;18.00;33.40;;;;;;4816928;29;20196;-81
2021/03/05 11:55:55;;;;;;;3.92;0.68;;;18.10;33.20;;;;;;4838105;29;20170;-81
2021/03/05 11:58:22;;;;;;;4.95;0.98;;;18.10;33.20;;;;;;4856853;29;20183;-80
2021/03/05 12:00:49;;;;;;;9.02;0.90;;;18.10;33.10;;;;;;4896018;29;20171;-81
2021/03/05 12:03:16;;;;;;;18.38;1.67;;;18.00;33.10;;;;;;4911641;29;20176;-79
2021/03/05 12:05:42;;;;;;;11.55;1.25;;;18.10;33.80;;;;;;4898643;29;20626;-80
2021/03/05 12:08:08;;;;;;;11.70;1.48;;;18.00;33.00;;;;;;4915808;29;20156;-80
2021/03/05 12:10:42;;;;;;;8.57;1.00;;;18.10;32.90;;;;;;4898640;29;20199;-81
2021/03/05 12:13:11;;;;;;;11.45;1.13;;;18.20;32.80;;;;;;4897716;29;20176;-80
2021/03/05 12:15:39;;;;;;;8.55;1.10;;;18.20;32.80;;;;;;4898321;29;20164;-80
2021/03/05 12:18:14;;;;;;;12.93;1.13;;;18.20;32.80;;;;;;4914294;29;20182;-81
2021/03/05 12:20:42;;;;;;;5.03;0.80;;;18.10;32.80;;;;;;4913198;29;20165;-80
2021/03/05 12:23:09;;;;;;;5.97;0.90;;;18.10;32.70;;;;;;4909428;29;20171;-81
2021/03/05 12:25:44;;;;;;;9.32;1.05;;;18.10;32.70;;;;;;4909652;29;20219;-81
2021/03/05 12:28:09;;;;;;;7.10;0.70;;;18.10;33.30;;;;;;4893809;29;20167;-81
2021/03/05 12:30:35;;;;;;;5.47;1.02;;;18.20;32.70;;;;;;4911616;29;20163;-82
2021/03/05 12:33:01;;;;;;;6.75;1.00;;;18.20;32.50;;;;;;4912781;29;20166;-82
2021/03/05 12:35:27;;;;;;;16.15;1.20;;;18.20;32.60;;;;;;4912769;29;20226;-81
2021/03/05 12:37:52;;;;;;;5.03;1.05;;;18.30;32.60;;;;;;4897593;29;20179;-81
2021/03/05 12:40:18;;;;;;;6.15;0.75;;;18.30;32.50;;;;;;4914675;29;20191;-81
2021/03/05 12:42:45;;;;;;;8.88;1.00;;;18.30;32.20;;;;;;4897077;29;20172;-81
2021/03/05 12:45:14;;;;;;;9.82;0.93;;;18.20;32.30;;;;;;4914438;29;20155;-81
2021/03/05 12:47:40;;;;;;;11.40;1.50;;;18.20;32.50;;;;;;4897103;29;20241;-82
2021/03/05 12:50:09;;;;;;;18.65;1.35;;;18.20;32.50;;;;;;4912096;29;20553;-82
2021/03/05 12:52:36;;;;;;;11.85;1.27;;;18.20;32.60;;;;;;4914128;29;20749;-82
2021/03/05 12:55:03;;;;;;;14.82;1.33;;;18.20;32.50;;;;;;4911745;29;20183;-81
2021/03/05 12:57:29;;;;;;;13.75;1.55;;;18.20;32.50;;;;;;4910969;29;20195;-81
2021/03/05 12:59:56;;;;;;;9.50;1.10;;;18.20;32.30;;;;;;4910717;29;20294;-82
2021/03/05 13:02:22;;;;;;;14.48;1.20;;;18.20;32.50;;;;;;4893693;29;20258;-82
2021/03/05 13:04:49;;;;;;;8.77;1.27;;;18.20;32.50;;;;;;4912386;29;20247;-82
2021/03/05 13:07:16;;;;;;;15.10;1.63;;;18.10;32.60;;;;;;4909800;29;20183;-82
2021/03/05 13:09:50;;;;;;;10.57;1.15;;;18.30;32.30;;;;;;4911799;29;20315;-81
2021/03/05 13:12:17;;;;;;;10.85;1.45;;;18.20;32.30;;;;;;4910483;29;20148;-82
2021/03/05 13:14:44;;;;;;;10.40;1.15;;;18.20;32.30;;;;;;4913123;29;20155;-81
2021/03/05 13:17:09;;;;;;;17.27;1.52;;;18.20;32.30;;;;;;4894837;29;20545;-81
2021/03/05 13:19:36;;;;;;;14.90;1.30;;;18.20;32.20;;;;;;4905971;29;20250;-81
2021/03/05 13:22:03;;;;;;;10.57;1.17;;;18.20;32.20;;;;;;4906161;29;20194;-81
2021/03/05 13:24:29;;;;;;;14.60;1.13;;;18.20;32.40;;;;;;4894147;29;20230;-81
2021/03/05 13:26:58;;;;;;;15.07;1.05;;;18.20;32.30;;;;;;4911624;29;20198;-81
2021/03/05 13:29:33;;;;;;;10.85;1.60;;;18.20;32.10;;;;;;4913729;29;20173;-81
2021/03/05 13:31:59;;;;;;;9.35;0.85;;;18.20;32.10;;;;;;4916064;29;20174;-80
2021/03/05 13:34:29;;;;;;;11.55;1.30;;;18.20;31.90;;;;;;4883972;29;20203;-81
2021/03/05 13:36:58;;;;;;;10.48;2.05;;;18.20;32.00;;;;;;4898347;29;20261;-82
2021/03/05 13:39:25;;;;;;;14.10;5.20;;;18.20;32.00;;;;;;4903311;29;20190;-82
2021/03/05 13:42:00;;;;;;;20.13;4.50;;;18.20;32.50;;;;;;4895440;29;20182;-81
2021/03/05 13:44:26;;;;;;;20.30;7.00;;;18.20;32.60;;;;;;4914978;29;20175;-81
2021/03/05 13:46:52;;;;;;;18.08;4.60;;;18.20;33.80;;;;;;4916174;29;20273;-80
2021/03/05 13:49:18;;;;;;;5.50;1.60;;;18.20;34.40;;;;;;4896358;29;20182;-81
2021/03/05 13:51:44;;;;;;;6.60;1.90;;;18.10;33.30;;;;;;4913145;29;20155;-82
2021/03/05 13:54:10;;;;;;;9.43;1.35;;;18.20;34.50;;;;;;4911510;29;20224;-82
2021/03/05 13:56:45;;;;;;;14.55;1.90;;;18.10;33.20;;;;;;4910105;29;20178;-82
2021/03/05 13:59:19;;;;;;;17.25;2.45;;;18.00;33.30;;;;;;4932693;29;20166;-81
2021/03/05 14:01:54;;;;;;;11.73;2.22;;;18.00;33.80;;;;;;4917936;29;20180;-81
2021/03/05 14:04:20;;;;;;;5.70;1.40;;;18.00;33.70;;;;;;4933221;29;20161;-81
2021/03/05 14:06:47;;;;;;;10.38;1.67;;;18.00;33.50;;;;;;4932954;29;20197;-81
2021/03/05 14:09:12;;;;;;;8.32;1.70;;;17.90;33.50;;;;;;4933639;29;20310;-82
2021/03/05 14:11:39;;;;;;;8.35;1.88;;;17.90;34.40;;;;;;4899674;29;20167;-81
2021/03/05 14:14:14;;;;;;;4.97;1.70;;;18.00;34.60;;;;;;4928062;29;20159;-81
2021/03/05 14:16:43;;;;;;;9.02;1.48;;;18.00;34.20;;;;;;4911002;29;20177;-81
2021/03/05 14:19:10;;;;;;;5.13;1.90;;;18.10;33.60;;;;;;4897937;29;20254;-82
2021/03/05 14:21:36;;;;;;;10.60;2.47;;;18.10;33.20;;;;;;4913432;29;20760;-81
2021/03/05 14:24:02;;;;;;;8.63;2.47;;;18.10;33.50;;;;;;4899524;29;20170;-82
2021/03/05 14:26:28;;;;;;;11.55;3.28;;;18.10;33.60;;;;;;4899303;29;20195;-81
2021/03/05 14:28:55;;;;;;;8.35;3.03;;;18.00;34.30;;;;;;4899091;29;20226;-81
2021/03/05 14:31:22;;;;;;;10.27;3.17;;;18.00;34.40;;;;;;4915588;29;20167;-81
2021/03/05 14:33:51;;;;;;;8.85;2.60;;;18.00;35.00;;;;;;4900407;29;20163;-81
2021/03/05 14:36:21;;;;;;;8.10;2.63;;;18.00;34.90;;;;;;4909751;29;20251;-81
2021/03/05 14:38:55;;;;;;;8.00;2.50;;;18.00;34.80;;;;;;4878767;29;20170;-80
2021/03/05 14:41:21;;;;;;;6.18;2.42;;;18.00;35.00;;;;;;4897041;29;20179;-81
2021/03/05 14:43:47;;;;;;;4.90;2.15;;;17.90;35.00;;;;;;4894284;29;20220;-80
2021/03/05 14:46:16;;;;;;;7.65;2.05;;;17.90;34.40;;;;;;4879199;29;20199;-80
2021/03/05 14:48:44;;;;;;;7.43;2.22;;;18.00;34.80;;;;;;4888709;29;20225;-80
2021/03/05 14:51:13;;;;;;;7.25;2.20;;;18.00;34.20;;;;;;4892299;29;20203;-80
2021/03/05 14:53:39;;;;;;;5.28;2.30;;;18.10;34.50;;;;;;4907555;29;20176;-80
2021/03/05 14:56:06;;;;;;;6.38;2.13;;;18.00;34.80;;;;;;4891706;29;20635;-81
2021/03/05 14:58:32;;;;;;;4.43;2.10;;;18.00;34.60;;;;;;4906235;29;20167;-81
2021/03/05 15:00:58;;;;;;;5.68;2.40;;;18.00;34.50;;;;;;4892126;29;20180;-81
2021/03/05 15:03:24;;;;;;;6.28;1.83;;;18.00;34.70;;;;;;4896139;29;20172;-81
2021/03/05 15:05:51;;;;;;;6.63;1.83;;;18.00;34.30;;;;;;4911331;29;20192;-81
2021/03/05 15:08:17;;;;;;;9.10;2.20;;;18.10;34.20;;;;;;4909535;29;20192;-81
2021/03/05 15:10:43;;;;;;;8.43;2.22;;;18.10;34.60;;;;;;4910462;29;20168;-81
2021/03/05 15:13:09;;;;;;;6.90;2.13;;;18.10;34.20;;;;;;4912197;29;20165;-81
2021/03/05 15:15:35;;;;;;;5.38;1.83;;;18.10;34.20;;;;;;4913524;29;20170;-80
2021/03/05 15:18:02;;;;;;;7.10;1.90;;;18.10;34.30;;;;;;4899236;29;20172;-83
2021/03/05 15:20:28;;;;;;;5.07;1.98;;;18.10;35.00;;;;;;4899969;29;20172;-80
2021/03/05 15:23:02;;;;;;;8.32;2.15;;;18.10;34.70;;;;;;4899787;29;20239;-81
2021/03/05 15:25:28;;;;;;;5.07;1.73;;;18.10;35.20;;;;;;4902985;29;20249;-81
2021/03/05 15:27:54;;;;;;;5.63;1.80;;;18.00;34.60;;;;;;4924193;29;20175;-81
2021/03/05 15:30:22;;;;;;;5.50;1.95;;;18.00;34.40;;;;;;4896763;29;20526;-82
2021/03/05 15:32:50;;;;;;;6.30;2.00;;;18.10;34.60;;;;;;4880942;29;20179;-81
2021/03/05 15:35:16;;;;;;;5.00;2.30;;;18.00;34.80;;;;;;4896478;29;20227;-81
2021/03/05 15:37:43;;;;;;;4.95;2.00;;;18.00;35.00;;;;;;4913830;29;20182;-81
2021/03/05 15:40:12;;;;;;;5.25;1.67;;;17.90;34.90;;;;;;4914841;29;20160;-81
2021/03/05 15:42:39;;;;;;;3.38;1.65;;;18.00;34.60;;;;;;4899349;29;20178;-80
2021/03/05 15:45:06;;;;;;;4.78;2.10;;;18.00;34.30;;;;;;4890356;29;20177;-82
2021/03/05 15:47:31;;;;;;;5.63;1.70;;;18.10;34.70;;;;;;4915235;29;20206;-80
2021/03/05 15:49:57;;;;;;;4.47;1.85;;;18.10;34.30;;;;;;4899757;29;20167;-81
2021/03/05 15:52:25;;;;;;;7.05;1.90;;;18.10;34.70;;;;;;4917373;29;20219;-80
2021/03/05 15:54:54;;;;;;;3.22;1.70;;;18.00;35.20;;;;;;4916315;29;20167;-81
2021/03/05 15:57:21;;;;;;;3.40;1.70;;;18.00;35.10;;;;;;4914478;29;20333;-81
2021/03/05 15:59:52;;;;;;;2.97;1.73;;;18.00;35.10;;;;;;4917214;29;20163;-81
2021/03/05 16:02:20;;;;;;;4.07;2.03;;;18.00;34.60;;;;;;4914801;29;20194;-81
2021/03/05 16:04:47;;;;;;;4.20;1.77;;;18.10;34.70;;;;;;4899122;29;20202;-81
2021/03/05 16:07:12;;;;;;;6.32;1.90;;;18.00;34.70;;;;;;4908994;29;20197;-81
2021/03/05 16:09:38;;;;;;;3.40;1.70;;;18.10;34.20;;;;;;4909089;29;20159;-81
2021/03/05 16:12:07;;;;;;;3.92;1.63;;;18.10;34.20;;;;;;4925255;29;20662;-81
2021/03/05 16:14:33;;;;;;;3.97;1.65;;;18.10;34.00;;;;;;4905583;29;20197;-82
2021/03/05 16:17:08;;;;;;;3.63;1.67;;;18.10;34.40;;;;;;4905430;29;20243;-79
2021/03/05 16:19:35;;;;;;;3.88;1.65;;;18.10;34.20;;;;;;4911258;29;20202;-80
2021/03/05 16:22:02;;;;;;;7.90;1.70;;;18.10;34.20;;;;;;4914061;29;20706;-80
2021/03/05 16:24:31;;;;;;;5.47;1.90;;;18.00;34.50;;;;;;4897267;29;20168;-81
2021/03/05 16:27:05;;;;;;;4.25;1.77;;;18.00;34.20;;;;;;4905287;29;20246;-81
2021/03/05 16:29:31;;;;;;;3.15;1.63;;;18.00;34.10;;;;;;4927549;29;20526;-80
2021/03/05 16:32:02;;;;;;;6.00;1.80;;;18.10;33.90;;;;;;4927392;29;20246;-80
2021/03/05 16:34:32;;;;;;;4.07;1.60;;;18.10;33.50;;;;;;4900725;29;20190;-80
2021/03/05 16:52:10;;;;;;;;;;;;;;;;;;;;;
2021/03/05 16:54:51;;;;;;;;;;;;;;;;;;;;;
2021/03/05 17:00:58;;;;;;;3.05;1.40;;;18.10;33.20;;;;;;4851542;29;20656;-80
2021/03/05 17:03:24;;;;;;;3.53;1.70;;;18.20;33.70;;;;;;4841269;29;20193;-79
2021/03/05 17:06:03;;;;;;;3.28;1.42;;;18.10;34.00;;;;;;4847636;29;20285;-80
2021/03/05 17:09:32;;;;;;;;;;;;;;;;;;;;;
2021/03/05 17:12:24;;;;;;;2.30;1.58;;;18.00;34.40;;;;;;4780063;30;20267;-81
2021/03/05 17:14:59;;;;;;;3.28;1.42;;;18.00;33.70;;;;;;4781427;30;20247;-81
2021/03/05 17:17:25;;;;;;;6.07;1.50;;;18.10;33.60;;;;;;4774901;29;20713;-81
2021/03/05 17:19:56;;;;;;;3.50;1.80;;;18.10;33.80;;;;;;4821410;29;20206;-81
2021/03/05 17:22:28;;;;;;;4.47;1.70;;;18.00;33.90;;;;;;4789305;29;20219;-80
2021/03/05 17:24:56;;;;;;;3.70;1.45;;;18.00;34.00;;;;;;4805397;29;20258;-81
2021/03/05 17:27:40;;;;;;;6.85;1.70;;;18.10;33.90;;;;;;4801121;29;20214;-81
2021/03/05 17:31:05;;;;;;;11.38;1.90;;;18.10;34.00;;;;;;4801928;29;20167;-80
2021/03/05 17:33:44;;;;;;;7.22;1.60;;;18.10;33.70;;;;;;4763460;30;20192;-80
2021/03/05 17:39:47;;;;;;;8.52;1.70;;;18.10;34.30;;;;;;4747664;30;20220;-80
2021/03/05 17:55:37;;;;;;;4.38;1.85;;;18.20;33.70;;;;;;4730123;30;20216;-80
2021/03/05 18:11:37;;;;;;;7.13;1.80;;;18.20;33.50;;;;;;4729033;30;20200;-80
2021/03/05 18:41:19;;;;;;;3.38;1.70;;;18.10;33.50;;;;;;4915312;29;20261;-82
2021/03/05 18:47:20;;;;;;;5.07;1.70;;;18.20;32.70;;;;;;4919611;29;20251;-80
2021/03/05 18:49:53;;;;;;;6.07;1.80;;;18.20;32.60;;;;;;4904285;29;20183;-81
2021/03/05 18:56:22;;;;;;;3.72;1.67;;;18.20;32.40;;;;;;4922549;29;20203;-80
2021/03/05 18:59:00;;;;;;;6.38;1.70;;;18.20;32.80;;;;;;4904200;29;20539;-80
2021/03/05 19:01:38;;;;;;;6.63;1.90;;;18.20;32.90;;;;;;4902059;29;20550;-79
2021/03/05 19:04:44;;;;;;;3.10;1.63;;;18.20;32.80;;;;;;4874877;29;20169;-80
2021/03/05 19:07:18;;;;;;;5.82;1.77;;;18.20;32.70;;;;;;4902237;29;20230;-81
2021/03/05 19:16:34;;;;;;;4.68;1.67;;;18.20;32.50;;;;;;4941026;29;20150;-80
2021/03/05 19:22:28;;;;;;;3.95;1.60;;;18.10;32.60;;;;;;4940298;29;20182;-81
2021/03/05 19:25:50;;;;;;;4.45;1.65;;;18.10;32.80;;;;;;4906099;29;20197;-81
2021/03/05 19:28:19;;;;;;;5.35;1.80;;;18.10;33.20;;;;;;4938510;29;20202;-80
2021/03/05 19:30:54;;;;;;;8.25;2.00;;;18.10;32.60;;;;;;4910623;29;20200;-81
2021/03/05 19:33:21;;;;;;;6.68;2.42;;;18.10;32.50;;;;;;4905037;29;20222;-81
2021/03/05 19:35:50;;;;;;;5.25;1.92;;;18.10;32.50;;;;;;4887569;29;20705;-81
2021/03/05 19:41:53;;;;;;;4.95;1.80;;;18.20;32.40;;;;;;4917253;29;20163;-82
2021/03/05 19:48:36;;;;;;;5.50;1.90;;;18.10;32.70;;;;;;4913505;29;20221;-81
